Terminal Aerodrome Forecast
Issued by NWS

Home | Current Version | Previous Version | Text Only | Print | Product List | Glossary On
Versions: 1 2 3 4 5 6 7 8 9 10 11 12 13 14 15 16 17 18
000
FTUS45 KRIW 271136
TAFRKS
TAF
KRKS 271136Z 2712/2812 VRB05KT P6SM VCSH SCT050 BKN070
     FM271400 30007KT P6SM BKN070
     FM271900 28012G18KT P6SM VCSH SCT050 BKN090
     FM280200 26008KT P6SM FEW060 SCT110=

USA.gov is the U.S. government's official web portal to all federal, state and local government web resources and services.